Terminal Aerodrome Forecast
Issued by NWS Sioux Falls, SD

Home | Current Version | Previous Version | Graphics & Text | Print | Product List | Glossary On
Versions: 1 2 3 4 5 6 7 8 9 10 11
826
FTUS43 KFSD 262320
TAFFSD
TAF
KFSD 262320Z 2700/2724 34012G18KT P6SM OVC020
     FM270200 34009KT P6SM OVC019
     FM270600 33007KT P6SM OVC015
     FM271500 32011KT P6SM OVC020
     FM271600 33013KT P6SM SCT025=

USA.gov is the U.S. government's official web portal to all federal, state and local government web resources and services.